createdAt,value
2023-02-19T00:00:13.712Z,973.24
2023-02-19T00:01:13.727Z,973.22
2023-02-19T00:02:13.585Z,973.23
2023-02-19T00:03:13.946Z,973.20
2023-02-19T00:04:13.589Z,973.21
2023-02-19T00:05:13.666Z,973.19
2023-02-19T00:06:13.537Z,973.18
2023-02-19T00:07:13.594Z,973.09
2023-02-19T00:08:13.581Z,973.10
2023-02-19T00:09:13.580Z,973.09
2023-02-19T00:10:13.641Z,973.06
2023-02-19T00:11:13.491Z,973.04
2023-02-19T00:12:13.506Z,973.08
2023-02-19T00:13:13.518Z,973.08
2023-02-19T00:14:13.450Z,973.07
2023-02-19T00:15:13.531Z,973.05
2023-02-19T00:16:13.417Z,973.01
2023-02-19T00:17:13.499Z,973.03
2023-02-19T00:18:13.378Z,973.00
2023-02-19T00:19:13.495Z,973.01
2023-02-19T00:20:13.368Z,972.96
2023-02-19T00:21:13.434Z,972.98
2023-02-19T00:22:13.325Z,972.95
2023-02-19T00:23:13.383Z,972.98
2023-02-19T00:24:13.310Z,972.99
2023-02-19T00:25:13.395Z,973.02
2023-02-19T00:26:18.567Z,972.97
2023-02-19T00:27:13.289Z,972.94
2023-02-19T00:28:13.300Z,972.92
2023-02-19T00:29:13.272Z,972.90
2023-02-19T00:30:13.355Z,972.86
2023-02-19T00:31:13.820Z,972.89
2023-02-19T00:32:13.379Z,972.91
2023-02-19T00:33:13.204Z,972.84
2023-02-19T00:34:13.298Z,972.86
2023-02-19T00:35:13.184Z,972.84
2023-02-19T00:36:13.303Z,972.83
2023-02-19T00:37:13.181Z,972.84
2023-02-19T00:38:13.214Z,972.80
2023-02-19T00:39:13.137Z,972.77
2023-02-19T00:40:13.129Z,972.78
2023-02-19T00:41:13.112Z,972.82
2023-02-19T00:42:13.182Z,972.81
2023-02-19T00:43:13.068Z,972.72
2023-02-19T00:44:13.157Z,972.81
2023-02-19T00:45:13.061Z,972.81
2023-02-19T00:46:13.185Z,972.75
2023-02-19T00:47:13.024Z,972.71
2023-02-19T00:48:13.185Z,972.74
2023-02-19T00:49:12.999Z,972.71
2023-02-19T00:50:12.988Z,972.70
2023-02-19T00:51:12.991Z,972.74
2023-02-19T00:52:12.965Z,972.73
2023-02-19T00:53:12.956Z,972.74
2023-02-19T00:54:13.010Z,972.75
2023-02-19T00:55:12.946Z,972.80
2023-02-19T00:56:12.924Z,972.78
2023-02-19T00:57:12.894Z,972.77
2023-02-19T00:58:12.941Z,972.78
2023-02-19T00:59:12.884Z,972.81
2023-02-19T01:00:12.925Z,972.80
2023-02-19T01:01:12.879Z,972.83
2023-02-19T01:02:12.815Z,972.82
2023-02-19T01:03:12.815Z,972.90
2023-02-19T01:04:12.917Z,972.81
2023-02-19T01:05:12.801Z,972.89
2023-02-19T01:06:12.836Z,972.87
2023-02-19T01:07:12.782Z,972.91
2023-02-19T01:08:12.752Z,972.91
2023-02-19T01:09:12.764Z,972.88
2023-02-19T01:10:12.755Z,972.88
2023-02-19T01:11:13.004Z,972.84
2023-02-19T01:12:12.837Z,972.82
2023-02-19T01:13:12.682Z,972.79
2023-02-19T01:14:12.805Z,972.80
2023-02-19T01:15:12.724Z,972.83
2023-02-19T01:16:12.686Z,972.85
2023-02-19T01:17:12.777Z,972.84
2023-02-19T01:18:12.607Z,972.82
2023-02-19T01:19:12.639Z,972.81
2023-02-19T01:20:12.624Z,972.79
2023-02-19T01:21:12.722Z,972.75
2023-02-19T01:22:12.596Z,972.80
2023-02-19T01:23:12.590Z,972.80
2023-02-19T01:24:12.589Z,972.80
2023-02-19T01:25:12.580Z,972.76
2023-02-19T01:26:12.549Z,972.79
2023-02-19T01:27:12.555Z,972.72
2023-02-19T01:28:12.507Z,972.68
2023-02-19T01:29:12.562Z,972.71
2023-02-19T01:30:12.568Z,972.65
2023-02-19T01:31:12.877Z,972.62
2023-02-19T01:32:12.791Z,972.64
2023-02-19T01:33:12.433Z,972.70
2023-02-19T01:34:12.419Z,972.63
2023-02-19T01:35:12.408Z,972.70
2023-02-19T01:36:12.384Z,972.71
2023-02-19T01:37:12.406Z,972.73
2023-02-19T01:38:12.388Z,972.72
2023-02-19T01:39:12.359Z,972.73
2023-02-19T01:40:18.554Z,972.78
2023-02-19T01:41:12.652Z,972.74
2023-02-19T01:42:12.494Z,972.77
2023-02-19T01:43:12.300Z,972.74
2023-02-19T01:44:12.436Z,972.76
2023-02-19T01:45:12.268Z,972.76
2023-02-19T01:46:12.424Z,972.66
2023-02-19T01:47:12.280Z,972.68
2023-02-19T01:48:12.377Z,972.64
2023-02-19T01:49:12.212Z,972.64
2023-02-19T01:50:12.378Z,972.75
2023-02-19T01:51:12.572Z,972.66
2023-02-19T01:52:12.180Z,972.62
2023-02-19T01:53:12.416Z,972.59
2023-02-19T01:54:12.135Z,972.57
2023-02-19T01:55:12.224Z,972.54
2023-02-19T01:56:12.214Z,972.50
2023-02-19T01:57:12.159Z,972.46
2023-02-19T01:58:12.233Z,972.47
2023-02-19T01:59:12.154Z,972.48
2023-02-19T02:00:12.145Z,972.45
2023-02-19T02:01:12.646Z,972.38
2023-02-19T02:02:12.065Z,972.45
2023-02-19T02:03:12.193Z,972.42
2023-02-19T02:04:12.038Z,972.39
2023-02-19T02:05:12.190Z,972.41
2023-02-19T02:06:12.190Z,972.43
2023-02-19T02:07:11.995Z,972.39
2023-02-19T02:08:12.208Z,972.45
2023-02-19T02:09:12.029Z,972.44
2023-02-19T02:10:12.124Z,972.43
2023-02-19T02:11:12.401Z,972.41
2023-02-19T02:12:11.911Z,972.40
2023-02-19T02:13:11.956Z,972.42
2023-02-19T02:14:11.899Z,972.42
2023-02-19T02:15:12.022Z,972.41
2023-02-19T02:16:11.892Z,972.50
2023-02-19T02:17:12.086Z,972.48
2023-02-19T02:18:11.829Z,972.48
2023-02-19T02:19:11.898Z,972.51
2023-02-19T02:20:11.843Z,972.44
2023-02-19T02:21:12.143Z,972.49
2023-02-19T02:22:11.783Z,972.51
2023-02-19T02:23:11.969Z,972.58
2023-02-19T02:24:11.752Z,972.60
2023-02-19T02:25:11.972Z,972.56
2023-02-19T02:26:11.727Z,972.59
2023-02-19T02:27:11.948Z,972.53
2023-02-19T02:28:11.715Z,972.57
2023-02-19T02:29:11.903Z,972.63
2023-02-19T02:30:11.746Z,972.65
2023-02-19T02:31:12.304Z,972.65
2023-02-19T02:32:11.703Z,972.68
2023-02-19T02:33:12.078Z,972.64
2023-02-19T02:34:11.644Z,972.61
2023-02-19T02:35:11.763Z,972.60
2023-02-19T02:36:11.608Z,972.58
2023-02-19T02:37:11.793Z,972.57
2023-02-19T02:38:11.596Z,972.60
2023-02-19T02:39:11.738Z,972.56
2023-02-19T02:40:11.547Z,972.63
2023-02-19T02:41:12.160Z,972.65
2023-02-19T02:42:11.646Z,972.59
2023-02-19T02:43:11.530Z,972.59
2023-02-19T02:44:11.751Z,972.55
2023-02-19T02:45:11.514Z,972.53
2023-02-19T02:46:11.623Z,972.54
2023-02-19T02:47:11.505Z,972.55
2023-02-19T02:48:11.567Z,972.51
2023-02-19T02:49:11.458Z,972.54
2023-02-19T02:50:11.577Z,972.47
2023-02-19T02:51:11.728Z,972.50
2023-02-19T02:52:11.537Z,972.47
2023-02-19T02:53:11.413Z,972.48
2023-02-19T02:54:11.507Z,972.44
2023-02-19T02:55:11.389Z,972.44
2023-02-19T02:56:11.456Z,972.40
2023-02-19T02:57:11.356Z,972.40
2023-02-19T02:58:11.470Z,972.32
2023-02-19T02:59:11.304Z,972.40
2023-02-19T03:00:11.523Z,972.37
2023-02-19T03:01:11.678Z,972.38
2023-02-19T03:02:11.619Z,972.29
2023-02-19T03:03:11.276Z,972.31
2023-02-19T03:04:11.432Z,972.28
2023-02-19T03:05:11.257Z,972.35
2023-02-19T03:06:11.389Z,972.30
2023-02-19T03:07:11.192Z,972.24
2023-02-19T03:08:11.312Z,972.23
2023-02-19T03:09:11.205Z,972.13
2023-02-19T03:10:11.333Z,972.14
2023-02-19T03:11:11.392Z,972.13
2023-02-19T03:12:11.394Z,972.20
2023-02-19T03:13:11.340Z,972.08
2023-02-19T03:14:11.164Z,972.18
2023-02-19T03:15:11.345Z,972.07
2023-02-19T03:16:11.137Z,972.10
2023-02-19T03:17:11.249Z,972.10
2023-02-19T03:18:11.232Z,972.08
2023-02-19T03:19:11.041Z,972.15
2023-02-19T03:20:11.251Z,972.12
2023-02-19T03:21:11.334Z,972.07
2023-02-19T03:22:11.198Z,972.15
2023-02-19T03:23:10.988Z,972.15
2023-02-19T03:24:11.279Z,972.22
2023-02-19T03:25:11.026Z,972.16
2023-02-19T03:26:11.221Z,972.15
2023-02-19T03:27:10.926Z,972.12
2023-02-19T03:28:11.252Z,972.13
2023-02-19T03:29:10.908Z,972.09
2023-02-19T03:30:11.146Z,972.12
2023-02-19T03:31:11.288Z,972.07
2023-02-19T03:32:11.088Z,972.16
2023-02-19T03:33:10.856Z,972.09
2023-02-19T03:34:10.979Z,972.07
2023-02-19T03:35:10.866Z,972.11
2023-02-19T03:36:11.053Z,972.11
2023-02-19T03:37:10.852Z,972.12
2023-02-19T03:38:11.003Z,972.11
2023-02-19T03:39:10.786Z,972.11
2023-02-19T03:40:11.492Z,972.12
2023-02-19T03:41:11.147Z,972.16
2023-02-19T03:42:10.947Z,972.18
2023-02-19T03:43:10.714Z,972.16
2023-02-19T03:44:10.849Z,972.14
2023-02-19T03:45:10.701Z,972.11
2023-02-19T03:46:10.930Z,972.16
2023-02-19T03:47:10.682Z,972.15
2023-02-19T03:48:10.918Z,972.16
2023-02-19T03:49:10.809Z,972.18
2023-02-19T03:50:10.652Z,972.17
2023-02-19T03:51:11.172Z,972.13
2023-02-19T03:52:10.652Z,972.23
2023-02-19T03:53:10.787Z,972.27
2023-02-19T03:54:10.815Z,972.25
2023-02-19T03:55:10.579Z,972.26
2023-02-19T03:56:10.751Z,972.28
2023-02-19T03:57:10.553Z,972.24
2023-02-19T03:58:10.613Z,972.24
2023-02-19T03:59:10.568Z,972.32
2023-02-19T04:00:10.661Z,972.31
2023-02-19T04:01:10.963Z,972.27
2023-02-19T04:02:10.696Z,972.24
2023-02-19T04:03:10.493Z,972.26
2023-02-19T04:04:10.682Z,972.24
2023-02-19T04:05:11.656Z,972.31
2023-02-19T04:06:10.590Z,972.35
2023-02-19T04:07:10.445Z,972.32
2023-02-19T04:08:10.663Z,972.30
2023-02-19T04:09:10.391Z,972.30
2023-02-19T04:10:10.620Z,972.39
2023-02-19T04:11:10.688Z,972.26
2023-02-19T04:12:10.696Z,972.32
2023-02-19T04:13:10.360Z,972.39
2023-02-19T04:14:10.568Z,972.30
2023-02-19T04:15:10.436Z,972.33
2023-02-19T04:16:10.321Z,972.28
2023-02-19T04:17:10.608Z,972.28
2023-02-19T04:18:10.316Z,972.32
2023-02-19T04:19:10.511Z,972.36
2023-02-19T04:20:10.533Z,972.34
2023-02-19T04:21:10.486Z,972.34
2023-02-19T04:22:10.302Z,972.36
2023-02-19T04:23:10.217Z,972.36
2023-02-19T04:24:10.471Z,972.36
2023-02-19T04:25:10.310Z,972.31
2023-02-19T04:26:10.200Z,972.37
2023-02-19T04:27:10.226Z,972.35
2023-02-19T04:28:10.179Z,972.36
2023-02-19T04:29:10.360Z,972.41
2023-02-19T04:30:10.348Z,972.43
2023-02-19T04:31:10.432Z,972.42
2023-02-19T04:32:10.280Z,972.45
2023-02-19T04:33:10.089Z,972.45
2023-02-19T04:34:10.319Z,972.39
2023-02-19T04:35:10.055Z,972.46
2023-02-19T04:36:10.189Z,972.49
2023-02-19T04:37:10.050Z,972.56
2023-02-19T04:38:10.208Z,972.55
2023-02-19T04:39:10.044Z,972.51
2023-02-19T04:40:10.219Z,972.54
2023-02-19T04:41:10.326Z,972.59
2023-02-19T04:42:10.035Z,972.57
2023-02-19T04:43:09.956Z,972.62
2023-02-19T04:44:10.237Z,972.66
2023-02-19T04:45:09.961Z,972.66
2023-02-19T04:46:10.148Z,972.64
2023-02-19T04:47:09.899Z,972.64
2023-02-19T04:48:09.977Z,972.65
2023-02-19T04:49:09.877Z,972.63
2023-02-19T04:50:10.111Z,972.67
2023-02-19T04:51:10.237Z,972.68
2023-02-19T04:52:10.015Z,972.68
2023-02-19T04:53:09.825Z,972.69
2023-02-19T04:54:10.010Z,972.71
2023-02-19T04:55:09.798Z,972.73
2023-02-19T04:56:09.932Z,972.74
2023-02-19T04:57:09.799Z,972.66
2023-02-19T04:58:09.949Z,972.73
2023-02-19T04:59:09.737Z,972.78
2023-02-19T05:00:09.950Z,972.83
2023-02-19T05:01:10.339Z,972.86
2023-02-19T05:02:09.765Z,972.82
2023-02-19T05:03:09.847Z,972.86
2023-02-19T05:04:09.731Z,972.84
2023-02-19T05:05:09.866Z,972.85
2023-02-19T05:06:09.679Z,972.88
2023-02-19T05:07:09.832Z,972.85
2023-02-19T05:08:09.712Z,972.84
2023-02-19T05:09:09.791Z,972.89
2023-02-19T05:10:09.621Z,972.86
2023-02-19T05:11:10.202Z,972.95
2023-02-19T05:12:09.625Z,972.93
2023-02-19T05:13:09.672Z,972.87
2023-02-19T05:14:09.602Z,972.88
2023-02-19T05:15:09.783Z,972.90
2023-02-19T05:16:09.603Z,972.92
2023-02-19T05:17:09.648Z,972.92
2023-02-19T05:18:09.518Z,972.95
2023-02-19T05:19:09.802Z,972.94
2023-02-19T05:20:09.497Z,972.95
2023-02-19T05:21:09.904Z,972.96
2023-02-19T05:22:09.639Z,972.93
2023-02-19T05:23:09.444Z,972.94
2023-02-19T05:24:09.663Z,972.96
2023-02-19T05:25:09.433Z,972.95
2023-02-19T05:26:09.656Z,972.94
2023-02-19T05:27:09.567Z,972.91
2023-02-19T05:28:09.382Z,972.92
2023-02-19T05:29:09.517Z,972.96
2023-02-19T05:30:09.401Z,972.97
2023-02-19T05:31:09.951Z,972.98
2023-02-19T05:32:09.579Z,972.98
2023-02-19T05:33:09.308Z,973.04
2023-02-19T05:34:09.588Z,973.07
2023-02-19T05:35:09.303Z,973.09
2023-02-19T05:36:09.601Z,973.10
2023-02-19T05:37:09.416Z,973.09
2023-02-19T05:38:09.303Z,973.12
2023-02-19T05:39:09.385Z,973.15
2023-02-19T05:40:09.246Z,973.17
2023-02-19T05:41:09.845Z,973.19
2023-02-19T05:42:09.257Z,973.22
2023-02-19T05:43:09.466Z,973.20
2023-02-19T05:44:09.176Z,973.22
2023-02-19T05:45:09.513Z,973.20
2023-02-19T05:46:09.205Z,973.22
2023-02-19T05:47:09.305Z,973.24
2023-02-19T05:48:09.667Z,973.19
2023-02-19T05:49:09.637Z,973.18
2023-02-19T05:50:09.441Z,973.18
2023-02-19T05:51:09.624Z,973.20
2023-02-19T05:52:09.081Z,973.21
2023-02-19T05:53:09.178Z,973.20
2023-02-19T05:54:09.271Z,973.26
2023-02-19T05:55:09.189Z,973.24
2023-02-19T05:56:09.047Z,973.25
2023-02-19T05:57:09.209Z,973.22
2023-02-19T05:58:09.001Z,973.24
2023-02-19T05:59:09.233Z,973.21
2023-02-19T06:00:08.984Z,973.21
2023-02-19T06:01:09.752Z,973.19
2023-02-19T06:02:08.980Z,973.24
2023-02-19T06:03:09.040Z,973.26
2023-02-19T06:04:09.005Z,973.26
2023-02-19T06:05:08.966Z,973.28
2023-02-19T06:06:08.900Z,973.28
2023-02-19T06:07:09.079Z,973.30
2023-02-19T06:08:09.190Z,973.38
2023-02-19T06:09:08.868Z,973.33
2023-02-19T06:10:09.126Z,973.38
2023-02-19T06:11:09.183Z,973.42
2023-02-19T06:12:08.969Z,973.39
2023-02-19T06:13:08.933Z,973.37
2023-02-19T06:14:08.791Z,973.33
2023-02-19T06:15:08.826Z,973.36
2023-02-19T06:16:08.793Z,973.36
2023-02-19T06:17:08.831Z,973.40
2023-02-19T06:18:08.779Z,973.43
2023-02-19T06:19:08.862Z,973.42
2023-02-19T06:20:08.728Z,973.42
2023-02-19T06:21:09.337Z,973.42
2023-02-19T06:22:08.717Z,973.48
2023-02-19T06:23:08.786Z,973.45
2023-02-19T06:24:08.702Z,973.50
2023-02-19T06:25:08.678Z,973.51
2023-02-19T06:26:08.674Z,973.50
2023-02-19T06:27:08.697Z,973.55
2023-02-19T06:28:08.619Z,973.53
2023-02-19T06:29:08.717Z,973.55
2023-02-19T06:30:08.733Z,973.52
2023-02-19T06:31:09.382Z,973.58
2023-02-19T06:32:08.757Z,973.62
2023-02-19T06:33:08.747Z,973.71
2023-02-19T06:34:08.564Z,973.70
2023-02-19T06:35:08.566Z,973.75
2023-02-19T06:36:08.676Z,973.82
2023-02-19T06:37:08.519Z,973.79
2023-02-19T06:38:08.698Z,973.83
2023-02-19T06:39:08.596Z,973.88
2023-02-19T06:40:08.500Z,973.92
2023-02-19T06:41:08.835Z,973.90
2023-02-19T06:42:08.448Z,973.92
2023-02-19T06:43:08.648Z,973.92
2023-02-19T06:44:08.634Z,974.00
2023-02-19T06:45:08.380Z,974.03
2023-02-19T06:46:08.700Z,974.04
2023-02-19T06:47:08.358Z,974.11
2023-02-19T06:48:08.475Z,974.13
2023-02-19T06:49:08.497Z,974.15
2023-02-19T06:50:08.363Z,974.18
2023-02-19T06:51:08.675Z,974.20
2023-02-19T06:52:08.642Z,974.22
2023-02-19T06:53:08.503Z,974.26
2023-02-19T06:54:08.300Z,974.26
2023-02-19T06:55:08.297Z,974.31
2023-02-19T06:56:08.282Z,974.33
2023-02-19T06:57:08.306Z,974.36
2023-02-19T06:58:08.278Z,974.38
2023-02-19T06:59:08.452Z,974.41
2023-02-19T07:00:08.239Z,974.48
2023-02-19T07:01:08.571Z,974.43
2023-02-19T07:02:08.235Z,974.46
2023-02-19T07:03:08.310Z,974.47
2023-02-19T07:04:08.231Z,974.49
2023-02-19T07:05:08.278Z,974.52
2023-02-19T07:06:08.175Z,974.53
2023-02-19T07:07:08.316Z,974.53
2023-02-19T07:08:08.146Z,974.64
2023-02-19T07:09:08.098Z,974.59
2023-02-19T07:10:08.111Z,974.62
2023-02-19T07:11:08.434Z,974.62
2023-02-19T07:12:08.071Z,974.63
2023-02-19T07:13:08.282Z,974.59
2023-02-19T07:14:08.009Z,974.64
2023-02-19T07:15:08.243Z,974.64
2023-02-19T07:16:08.076Z,974.63
2023-02-19T07:17:08.148Z,974.64
2023-02-19T07:18:07.950Z,974.67
2023-02-19T07:19:08.180Z,974.67
2023-02-19T07:20:08.014Z,974.67
2023-02-19T07:21:08.096Z,974.69
2023-02-19T07:22:08.019Z,974.74
2023-02-19T07:23:07.918Z,974.75
2023-02-19T07:24:07.998Z,974.71
2023-02-19T07:25:08.050Z,974.77
2023-02-19T07:26:08.712Z,974.76
2023-02-19T07:27:08.122Z,974.75
2023-02-19T07:28:07.816Z,974.78
2023-02-19T07:29:08.040Z,974.76
2023-02-19T07:30:07.867Z,974.79
2023-02-19T07:31:08.134Z,974.80
2023-02-19T07:32:07.782Z,974.83
2023-02-19T07:33:10.365Z,974.85
2023-02-19T07:34:07.738Z,974.83
2023-02-19T07:35:07.973Z,974.85
2023-02-19T07:36:07.790Z,974.86
2023-02-19T07:37:07.823Z,974.83
2023-02-19T07:38:07.698Z,974.84
2023-02-19T07:39:10.035Z,974.88
2023-02-19T07:40:07.665Z,974.83
2023-02-19T07:41:07.816Z,974.87
2023-02-19T07:42:07.653Z,974.83
2023-02-19T07:43:07.895Z,974.82
2023-02-19T07:44:07.618Z,974.80
2023-02-19T07:45:07.827Z,974.78
2023-02-19T07:46:07.598Z,974.79
2023-02-19T07:47:07.691Z,974.81
2023-02-19T07:48:07.584Z,974.79
2023-02-19T07:49:07.665Z,974.76
2023-02-19T07:50:07.621Z,974.80
2023-02-19T07:51:07.695Z,974.81
2023-02-19T07:52:07.890Z,974.79
2023-02-19T07:53:07.748Z,974.83
2023-02-19T07:54:07.517Z,974.83
2023-02-19T07:55:07.717Z,974.90
2023-02-19T07:56:07.689Z,974.90
2023-02-19T07:57:07.521Z,974.90
2023-02-19T07:58:07.522Z,974.97
2023-02-19T07:59:07.558Z,974.93
2023-02-19T08:00:07.557Z,974.94
2023-02-19T08:01:07.600Z,974.96
2023-02-19T08:02:07.425Z,975.01
2023-02-19T08:03:07.654Z,975.02
2023-02-19T08:04:07.389Z,975.02
2023-02-19T08:05:07.589Z,974.97
2023-02-19T08:06:07.374Z,974.97
2023-02-19T08:07:07.584Z,974.96
2023-02-19T08:08:07.499Z,975.01
2023-02-19T08:09:07.449Z,975.03
2023-02-19T08:10:07.338Z,975.03
2023-02-19T08:11:07.414Z,975.02
2023-02-19T08:12:07.268Z,975.03
2023-02-19T08:13:07.318Z,974.99
2023-02-19T08:14:07.225Z,975.00
2023-02-19T08:15:07.392Z,975.03
2023-02-19T08:16:17.347Z,975.03
2023-02-19T08:17:07.255Z,975.03
2023-02-19T08:18:07.711Z,975.08
2023-02-19T08:19:07.253Z,975.09
2023-02-19T08:20:07.404Z,975.10
2023-02-19T08:21:07.209Z,975.08
2023-02-19T08:22:07.411Z,975.02
2023-02-19T08:23:07.144Z,975.05
2023-02-19T08:24:08.202Z,975.07
2023-02-19T08:25:07.220Z,975.16
2023-02-19T08:26:07.689Z,975.11
2023-02-19T08:27:07.470Z,975.11
2023-02-19T08:28:08.313Z,975.11
2023-02-19T08:29:07.934Z,975.16
2023-02-19T08:30:07.514Z,975.17
2023-02-19T08:31:07.806Z,975.20
2023-02-19T08:32:08.200Z,975.20
2023-02-19T08:33:07.612Z,975.22
2023-02-19T08:34:07.348Z,975.21
2023-02-19T08:35:07.882Z,975.25
2023-02-19T08:36:07.087Z,975.28
2023-02-19T08:37:07.313Z,975.29
2023-02-19T08:38:06.929Z,975.29
2023-02-19T08:39:07.148Z,975.32
2023-02-19T08:40:07.193Z,975.34
2023-02-19T08:41:07.257Z,975.34
2023-02-19T08:42:07.527Z,975.38
2023-02-19T08:43:07.039Z,975.35
2023-02-19T08:44:06.865Z,975.39
2023-02-19T08:45:07.055Z,975.35
2023-02-19T08:46:06.972Z,975.35
2023-02-19T08:47:07.050Z,975.34
2023-02-19T08:48:06.813Z,975.40
2023-02-19T08:49:06.884Z,975.40
2023-02-19T08:50:07.060Z,975.46
2023-02-19T08:51:07.116Z,975.44
2023-02-19T08:52:06.807Z,975.43
2023-02-19T08:53:06.970Z,975.45
2023-02-19T08:54:06.798Z,975.45
2023-02-19T08:55:06.905Z,975.50
2023-02-19T08:56:06.754Z,975.48
2023-02-19T08:57:07.152Z,975.48
2023-02-19T08:58:06.766Z,975.53
2023-02-19T08:59:06.950Z,975.53
2023-02-19T09:00:07.137Z,975.52
2023-02-19T09:01:07.502Z,975.59
2023-02-19T09:02:06.723Z,975.59
2023-02-19T09:03:06.977Z,975.59
2023-02-19T09:04:06.733Z,975.61
2023-02-19T09:05:06.790Z,975.58
2023-02-19T09:06:06.582Z,975.57
2023-02-19T09:07:06.732Z,975.62
2023-02-19T09:08:06.695Z,975.59
2023-02-19T09:09:06.992Z,975.59
2023-02-19T09:10:06.701Z,975.52
2023-02-19T09:11:06.537Z,975.56
2023-02-19T09:12:06.733Z,975.56
2023-02-19T09:13:06.710Z,975.51
2023-02-19T09:14:06.459Z,975.50
2023-02-19T09:15:06.575Z,975.60
2023-02-19T09:16:06.513Z,975.58
2023-02-19T09:17:06.569Z,975.59
2023-02-19T09:18:06.429Z,975.60
2023-02-19T09:19:06.961Z,975.66
2023-02-19T09:20:06.808Z,975.60
2023-02-19T09:21:06.646Z,975.64
2023-02-19T09:22:06.374Z,975.67
2023-02-19T09:23:06.611Z,975.68
2023-02-19T09:24:06.504Z,975.65
2023-02-19T09:25:06.645Z,975.64
2023-02-19T09:26:06.528Z,975.65
2023-02-19T09:27:06.513Z,975.60
2023-02-19T09:28:06.557Z,975.61
2023-02-19T09:29:06.559Z,975.63
2023-02-19T09:30:06.386Z,975.64
2023-02-19T09:31:07.431Z,975.65
2023-02-19T09:32:06.415Z,975.73
2023-02-19T09:33:06.751Z,975.74
2023-02-19T09:34:06.304Z,975.78
2023-02-19T09:35:06.713Z,975.75
2023-02-19T09:36:06.557Z,975.79
2023-02-19T09:37:06.646Z,975.85
2023-02-19T09:38:06.387Z,975.87
2023-02-19T09:39:07.521Z,975.90
2023-02-19T09:40:06.252Z,975.90
2023-02-19T09:41:07.069Z,975.91
2023-02-19T09:42:06.767Z,975.90
2023-02-19T09:43:06.642Z,975.92
2023-02-19T09:44:06.354Z,975.92
2023-02-19T09:45:06.243Z,975.95
2023-02-19T09:46:06.147Z,975.93
2023-02-19T09:47:06.467Z,975.93
2023-02-19T09:48:06.098Z,975.97
2023-02-19T09:49:12.310Z,975.96
2023-02-19T09:50:06.050Z,976.02
2023-02-19T09:51:06.203Z,975.99
2023-02-19T09:52:06.004Z,976.06
2023-02-19T09:53:06.264Z,976.04
2023-02-19T09:54:05.976Z,976.14
2023-02-19T09:55:06.194Z,976.16
2023-02-19T09:56:05.936Z,976.14
2023-02-19T09:57:06.039Z,976.18
2023-02-19T09:58:05.905Z,976.16
2023-02-19T09:59:06.127Z,976.17
2023-02-19T10:00:05.881Z,976.17
2023-02-19T10:01:06.074Z,976.21
2023-02-19T10:02:05.951Z,976.20
2023-02-19T10:03:06.132Z,976.22
2023-02-19T10:04:05.816Z,976.24
2023-02-19T10:05:06.157Z,976.18
2023-02-19T10:06:05.871Z,976.22
2023-02-19T10:07:06.082Z,976.21
2023-02-19T10:08:05.784Z,976.24
2023-02-19T10:09:05.886Z,976.24
2023-02-19T10:10:05.776Z,976.28
2023-02-19T10:11:05.979Z,976.26
2023-02-19T10:12:05.987Z,976.25
2023-02-19T10:13:05.929Z,976.30
2023-02-19T10:14:05.717Z,976.31
2023-02-19T10:15:05.949Z,976.36
2023-02-19T10:16:05.755Z,976.35
2023-02-19T10:17:05.829Z,976.37
2023-02-19T10:18:05.709Z,976.39
2023-02-19T10:19:05.843Z,976.36
2023-02-19T10:20:06.616Z,976.41
2023-02-19T10:21:05.719Z,976.41
2023-02-19T10:22:05.905Z,976.41
2023-02-19T10:23:06.325Z,976.40
2023-02-19T10:24:05.670Z,976.40
2023-02-19T10:25:06.173Z,976.43
2023-02-19T10:26:05.793Z,976.41
2023-02-19T10:27:05.590Z,976.44
2023-02-19T10:28:05.708Z,976.39
2023-02-19T10:29:05.598Z,976.40
2023-02-19T10:30:05.630Z,976.43
2023-02-19T10:31:05.547Z,976.52
2023-02-19T10:32:05.723Z,976.52
2023-02-19T10:33:06.116Z,976.51
2023-02-19T10:34:05.637Z,976.44
2023-02-19T10:35:05.466Z,976.46
2023-02-19T10:36:05.758Z,976.48
2023-02-19T10:37:05.579Z,976.51
2023-02-19T10:38:05.585Z,976.47
2023-02-19T10:39:05.454Z,976.48
2023-02-19T10:40:05.501Z,976.46
2023-02-19T10:41:05.576Z,976.44
2023-02-19T10:42:05.397Z,976.41
2023-02-19T10:43:05.615Z,976.40
2023-02-19T10:44:05.304Z,976.40
2023-02-19T10:45:05.421Z,976.47
2023-02-19T10:46:05.441Z,976.54
2023-02-19T10:47:05.455Z,976.55
2023-02-19T10:48:05.844Z,976.53
2023-02-19T10:49:05.930Z,976.54
2023-02-19T10:50:05.481Z,976.56
2023-02-19T10:51:05.562Z,976.54
2023-02-19T10:52:05.602Z,976.55
2023-02-19T10:53:05.525Z,976.55
2023-02-19T10:54:05.920Z,976.57
2023-02-19T10:55:05.488Z,976.58
2023-02-19T10:56:05.625Z,976.56
2023-02-19T10:57:05.335Z,976.56
2023-02-19T10:58:05.535Z,976.54
2023-02-19T10:59:05.370Z,976.57
2023-02-19T11:00:05.217Z,976.61
2023-02-19T11:01:06.294Z,976.62
2023-02-19T11:02:05.299Z,976.64
2023-02-19T11:03:05.184Z,976.62
2023-02-19T11:04:05.461Z,976.68
2023-02-19T11:05:05.174Z,976.66
2023-02-19T11:06:05.165Z,976.69
2023-02-19T11:07:05.067Z,976.63
2023-02-19T11:08:05.154Z,976.58
2023-02-19T11:09:05.185Z,976.59
2023-02-19T11:10:05.197Z,976.55
2023-02-19T11:11:04.994Z,976.54
2023-02-19T11:12:05.126Z,976.56
2023-02-19T11:13:04.953Z,976.54
2023-02-19T11:14:05.055Z,976.58
2023-02-19T11:15:05.641Z,976.53
2023-02-19T11:16:05.447Z,976.49
2023-02-19T11:17:05.151Z,976.52
2023-02-19T11:18:04.917Z,976.54
2023-02-19T11:19:05.533Z,976.53
2023-02-19T11:20:04.905Z,976.53
2023-02-19T11:21:04.959Z,976.47
2023-02-19T11:22:04.949Z,976.45
2023-02-19T11:23:04.981Z,976.42
2023-02-19T11:24:04.990Z,976.38
2023-02-19T11:25:05.067Z,976.39
2023-02-19T11:26:05.043Z,976.34
2023-02-19T11:27:05.416Z,976.33
2023-02-19T11:28:05.064Z,976.29
2023-02-19T11:29:05.157Z,976.28
2023-02-19T11:30:04.782Z,976.32
2023-02-19T11:31:05.495Z,976.27
2023-02-19T11:32:05.474Z,976.23
2023-02-19T11:33:04.755Z,976.18
2023-02-19T11:34:05.179Z,976.23
2023-02-19T11:35:04.699Z,976.22
2023-02-19T11:36:04.862Z,976.27
2023-02-19T11:37:05.495Z,976.27
2023-02-19T11:38:04.865Z,976.21
2023-02-19T11:39:04.707Z,976.22
2023-02-19T11:40:05.405Z,976.20
2023-02-19T11:41:04.634Z,976.21
2023-02-19T11:42:04.700Z,976.21
2023-02-19T11:43:04.626Z,976.23
2023-02-19T11:44:04.930Z,976.18
2023-02-19T11:45:05.701Z,976.20
2023-02-19T11:46:04.815Z,976.22
2023-02-19T11:47:04.597Z,976.19
2023-02-19T11:48:04.944Z,976.15
2023-02-19T11:49:04.829Z,976.15
2023-02-19T11:50:04.800Z,976.21
2023-02-19T11:51:04.566Z,976.21
2023-02-19T11:52:04.896Z,976.27
2023-02-19T11:53:04.627Z,976.26
2023-02-19T11:54:04.424Z,976.33
2023-02-19T11:55:04.636Z,976.33
2023-02-19T11:56:04.447Z,976.35
2023-02-19T11:57:04.724Z,976.30
2023-02-19T11:58:04.777Z,976.31
2023-02-19T11:59:04.392Z,976.28
2023-02-19T12:00:04.638Z,976.30
2023-02-19T12:01:04.313Z,976.31
2023-02-19T12:02:04.455Z,976.26
2023-02-19T12:03:04.472Z,976.30
2023-02-19T12:04:04.356Z,976.30
2023-02-19T12:05:04.473Z,976.27
2023-02-19T12:06:04.293Z,976.32
2023-02-19T12:07:04.388Z,976.31
2023-02-19T12:08:04.435Z,976.31
2023-02-19T12:09:04.203Z,976.31
2023-02-19T12:10:04.992Z,976.30
2023-02-19T12:11:04.187Z,976.31
2023-02-19T12:12:04.792Z,976.31
2023-02-19T12:13:04.156Z,976.30
2023-02-19T12:14:04.957Z,976.37
2023-02-19T12:15:04.905Z,976.40
2023-02-19T12:16:04.528Z,976.42
2023-02-19T12:17:04.194Z,976.42
2023-02-19T12:18:04.237Z,976.48
2023-02-19T12:19:04.172Z,976.42
2023-02-19T12:20:04.699Z,976.40
2023-02-19T12:21:04.088Z,976.44
2023-02-19T12:22:04.261Z,976.49
2023-02-19T12:23:04.040Z,976.51
2023-02-19T12:24:04.193Z,976.52
2023-02-19T12:25:03.995Z,976.53
2023-02-19T12:26:04.151Z,976.48
2023-02-19T12:27:03.959Z,976.49
2023-02-19T12:28:04.233Z,976.45